Tropical Cyclones
[Index]
Main Index Home Page Stock Weather Photos Extreme Storms Discussion Storm News and Storm Chasing Reports Tropical Cyclones / Hurricanes / Typhoons Weather Data and Links Wild Fires / Bushfires Weather Observation Techniques Weather Picture Catalogue Tornado Pictures and Reports Stock Video Footage and DVDs for sale
Season 1995-1996 Tropical Cyclone HUBERT Track Map
Season 1995-1996 Summaries: [BoM-AU] [JTWC-AU] [JTWC-SIO] [JTWC-SPAC] [JTWC-SH]
<<- Previous TC | BoM 1995-1996 Season | Next TC ->>

click for intensity scale information  Lat/long Grid: Show Hide

 Date Labels: Show Hide

Bureau of Meteorology Tropical Cyclone Data

Name: HUBERT
Number: 783 / 199596_06

06 Jan 1996 22:00 UTC to 12 Jan 1996 13:00 UTC

    date/time    lat    long    hPa   cat  kts
1996-01-06 22   10.2    99.6   1006                     
1996-01-07 01   10.3    99.1   1004         21          
1996-01-07 04   10.5    98.8   1002         23          
1996-01-07 07   10.7    98.5   1000         27          
1996-01-07 10   10.9    98.2    998         29          
1996-01-07 13   11.0    97.8    995    1    35          
1996-01-07 16   11.1    97.5    990    1    41          
1996-01-07 19   11.2    97.1    985    2    47          
1996-01-07 22   11.3    96.7    980    2    54          
1996-01-08 01   11.4    96.4    975    2    60          
1996-01-08 04   11.5    96.0    970    3    66          
1996-01-08 07   11.8    95.6    970    3    66          
1996-01-08 10   12.0    95.2    965    3    70          
1996-01-08 13   12.2    94.5    965    3    70          
1996-01-08 16   12.5    94.0    965    3    70          
1996-01-08 19   12.9    93.5    965    3    70          
1996-01-08 22   13.2    92.9    960    3    76          
1996-01-09 01   13.6    92.4    960    3    76          
1996-01-09 04   13.7    91.8    960    3    76          
1996-01-09 07   13.8    91.3    955    4    80          
1996-01-09 10   13.8    90.8    960    3    76          
1996-01-09 13   13.8    90.3    965    3    70          
1996-01-09 16   13.9    89.8    970    3    66          
1996-01-09 19   14.0    89.3    975    2    60          
1996-01-09 22   14.2    88.8    975    2    60          
1996-01-10 01   14.4    88.3    980    2    54          
1996-01-10 04   14.6    87.7    980    2    54          
1996-01-10 07   14.8    87.1    985    2    47          
1996-01-10 10   14.8    86.3    985    2    47          
1996-01-10 13   14.8    85.9    990    1    41          
1996-01-10 16   14.7    85.3    990    1    41          
1996-01-10 19   14.6    84.8    990    1    41          
1996-01-10 22   14.5    84.3    990    1    41          
1996-01-11 01   14.4    83.8    990    1    41          
1996-01-11 04   14.4    83.2    995    1    35          
1996-01-11 07   14.6    82.5    995    1    35          
1996-01-11 10   14.7    81.8    995    1    35          
1996-01-11 13   14.8    81.1    998         29          
1996-01-11 16   14.8    80.4    998         29          
1996-01-11 19   14.9    79.7    998         29          
1996-01-11 22   14.9    79.0    998         29          
1996-01-12 01   15.0    78.3   1000         27          
1996-01-12 04   15.0    77.6   1000         27          
1996-01-12 07   15.0    76.9   1000         27          
1996-01-12 10   15.0    76.2   1000         27          
1996-01-12 13   15.0    75.5   1004         21          
Winds are 10-min average.

Tropical cyclone tracks developed by Michael Bath using data from the Bureau of Meteorology and Google Maps.


[Australian Severe Weather index] [Copyright Notice] [Email Contacts] [Search This Site] [Privacy Policy]
Document: tropical_cyclone_hubert.htm Updated: 30 May 2013